Time;durP1;ratioP1;P1;durP2;ratioP2;P2;SDS_P1;SDS_P2;PMS_P1;PMS_P2;Temp;Humidity;BMP_temperature;BMP_pressure;BME280_temperature;BME280_humidity;BME280_pressure;Samples;Min_cycle;Max_cycle;Signal;HPM_P1;HPM_P2
2022/01/26 00:06:42;;;;;;;6.47;2.05;;;4.00;99.90;;;;;;6095882;23;20348;-68
2022/01/26 00:09:11;;;;;;;5.32;2.08;;;4.00;99.90;;;;;;6096117;23;20101;-67
2022/01/26 00:11:39;;;;;;;5.30;2.63;;;4.10;99.90;;;;;;6185574;23;20092;-68
2022/01/26 00:14:12;;;;;;;4.90;1.83;;;4.10;99.90;;;;;;6216975;23;20560;-67
2022/01/26 00:16:42;;;;;;;3.27;1.63;;;4.20;99.90;;;;;;6217021;23;20011;-67
2022/01/26 00:19:20;;;;;;;6.47;2.38;;;4.20;99.90;;;;;;6216882;23;20685;-67
2022/01/26 00:21:51;;;;;;;3.60;2.20;;;4.20;99.90;;;;;;6217435;23;20028;-64
2022/01/26 00:29:21;;;;;;;;;;;4.20;99.90;;;;;;6192619;23;20346;-64
2022/01/26 00:40:30;;;;;;;5.18;1.85;;;4.20;99.90;;;;;;6186671;23;20076;-65
2022/01/26 00:43:04;;;;;;;3.58;1.60;;;4.30;99.90;;;;;;6186716;23;20059;-65
2022/01/26 00:45:36;;;;;;;2.42;1.60;;;4.20;99.90;;;;;;6186479;23;20013;-65
2022/01/26 00:48:07;;;;;;;5.30;1.85;;;4.20;99.90;;;;;;6185212;23;20005;-65
2022/01/26 00:50:36;;;;;;;4.55;1.52;;;4.20;99.90;;;;;;6186629;23;20036;-65
2022/01/26 00:53:04;;;;;;;3.78;1.70;;;4.20;99.90;;;;;;6186558;23;20071;-65
2022/01/26 00:55:32;;;;;;;2.65;1.88;;;4.20;99.90;;;;;;6186557;23;20037;-65
2022/01/26 00:57:59;;;;;;;5.32;1.73;;;4.10;99.90;;;;;;6186590;23;20009;-64
2022/01/26 01:00:28;;;;;;;5.20;1.42;;;4.10;99.90;;;;;;6186529;23;20008;-64
2022/01/26 01:02:57;;;;;;;2.95;1.83;;;4.20;99.90;;;;;;6186419;23;20009;-65
2022/01/26 01:05:32;;;;;;;3.72;1.80;;;4.20;99.90;;;;;;6186308;23;20025;-64
2022/01/26 01:08:08;;;;;;;3.63;1.55;;;4.30;99.90;;;;;;6160538;23;20009;-65
2022/01/26 01:10:37;;;;;;;3.13;1.70;;;4.20;99.90;;;;;;6186318;23;20013;-65
2022/01/26 01:13:14;;;;;;;4.55;1.73;;;4.30;99.90;;;;;;6186356;23;20007;-65
2022/01/26 01:15:45;;;;;;;4.28;1.55;;;4.30;99.90;;;;;;6160212;23;20015;-65
2022/01/26 01:18:29;;;;;;;6.38;2.05;;;4.40;99.90;;;;;;6186279;23;20009;-65
2022/01/26 01:24:05;;;;;;;5.75;1.58;;;4.30;99.90;;;;;;6159818;23;20465;-65
2022/01/26 01:26:49;;;;;;;7.38;2.25;;;4.30;99.90;;;;;;6186091;23;20013;-65
2022/01/26 01:29:28;;;;;;;3.67;1.60;;;4.30;99.90;;;;;;6186115;23;20443;-65
2022/01/26 01:32:01;;;;;;;3.72;1.67;;;4.30;99.90;;;;;;6186311;23;20456;-65
2022/01/26 01:34:37;;;;;;;2.72;1.42;;;4.40;99.90;;;;;;6186571;23;20008;-65
2022/01/26 01:37:14;;;;;;;3.35;1.50;;;4.40;99.90;;;;;;6201304;23;20038;-65
2022/01/26 01:39:41;;;;;;;3.28;1.33;;;4.50;99.90;;;;;;6216233;23;20059;-65
2022/01/26 01:42:08;;;;;;;3.17;1.27;;;4.50;99.90;;;;;;6216580;23;20015;-66
2022/01/26 01:44:37;;;;;;;6.22;1.67;;;4.50;99.90;;;;;;6216089;23;20017;-65
2022/01/26 01:47:06;;;;;;;2.47;1.20;;;4.60;99.90;;;;;;6216119;23;19997;-64
2022/01/26 01:49:33;;;;;;;2.17;1.40;;;4.60;99.90;;;;;;6216185;23;20004;-65
2022/01/26 01:52:03;;;;;;;4.75;1.85;;;4.50;99.90;;;;;;6216056;23;20007;-65
2022/01/26 01:54:32;;;;;;;6.15;1.48;;;4.60;99.90;;;;;;6216109;23;20008;-64
2022/01/26 01:56:59;;;;;;;3.40;1.50;;;4.60;99.90;;;;;;6215936;23;20011;-65
2022/01/26 01:59:29;;;;;;;7.97;1.55;;;4.60;99.90;;;;;;6216364;23;20005;-65
2022/01/26 02:01:57;;;;;;;4.40;1.85;;;4.50;99.90;;;;;;6216047;23;20001;-65
2022/01/26 02:04:24;;;;;;;2.65;1.38;;;4.60;99.90;;;;;;6216334;23;20437;-65
2022/01/26 02:06:51;;;;;;;4.20;1.90;;;4.50;99.90;;;;;;6189953;23;20076;-65
2022/01/26 02:09:18;;;;;;;3.45;1.50;;;4.50;99.90;;;;;;6216090;23;20034;-65
2022/01/26 02:11:52;;;;;;;4.93;1.55;;;4.50;99.90;;;;;;6216021;23;20009;-65
2022/01/26 02:14:37;;;;;;;3.00;1.67;;;4.50;99.90;;;;;;6216078;23;20084;-65
2022/01/26 02:55:50;;;;;;;8.93;1.50;;;4.40;99.90;;;;;;6217707;23;20032;-65
2022/01/26 03:06:10;;;;;;;5.63;1.70;;;4.30;99.90;;;;;;6218068;23;20004;-65
2022/01/26 03:08:43;;;;;;;6.63;1.85;;;4.20;99.90;;;;;;6191024;23;20009;-65
2022/01/26 03:11:14;;;;;;;4.38;1.90;;;4.20;99.90;;;;;;6217497;23;20008;-65
2022/01/26 03:13:49;;;;;;;2.55;1.85;;;4.20;99.90;;;;;;6217611;23;20031;-65
2022/01/26 03:16:28;;;;;;;3.17;1.67;;;4.20;99.90;;;;;;6217502;23;20338;-65
2022/01/26 03:19:14;;;;;;;4.25;1.70;;;4.20;99.90;;;;;;6217741;23;20009;-65
2022/01/26 03:22:17;;;;;;;4.70;1.90;;;4.10;99.90;;;;;;6217532;23;20012;-65
2022/01/26 03:30:09;;;;;;;6.05;1.88;;;4.00;99.90;;;;;;6217839;23;20012;-65
2022/01/26 03:33:07;;;;;;;7.60;1.30;;;4.00;99.90;;;;;;6217333;23;20008;-65
2022/01/26 03:35:46;;;;;;;4.32;1.70;;;3.90;99.90;;;;;;6216518;23;20012;-65
2022/01/26 03:38:20;;;;;;;6.60;1.92;;;3.90;99.90;;;;;;6217254;23;20020;-65
2022/01/26 03:40:56;;;;;;;3.45;1.50;;;3.80;99.90;;;;;;6191783;23;20034;-65
2022/01/26 03:43:23;;;;;;;3.08;1.70;;;3.80;99.90;;;;;;6217271;23;20009;-65
2022/01/26 03:45:50;;;;;;;3.80;1.55;;;3.80;99.90;;;;;;6217030;23;20019;-65
2022/01/26 03:48:16;;;;;;;3.10;1.65;;;3.80;99.90;;;;;;6217313;23;20080;-65
2022/01/26 03:50:43;;;;;;;5.47;1.70;;;3.80;99.90;;;;;;6217229;23;20012;-65
2022/01/26 03:53:09;;;;;;;3.83;1.50;;;3.80;99.90;;;;;;6217268;23;20076;-65
2022/01/26 03:55:36;;;;;;;1.70;1.10;;;3.70;99.90;;;;;;6217582;23;19997;-65
2022/01/26 03:58:02;;;;;;;10.73;1.92;;;3.70;99.90;;;;;;6217060;23;20027;-65
2022/01/26 04:00:28;;;;;;;3.75;1.58;;;3.60;99.90;;;;;;6217190;23;20035;-65
2022/01/26 04:02:55;;;;;;;4.07;1.60;;;3.60;99.90;;;;;;6217195;23;20016;-65
2022/01/26 04:05:22;;;;;;;8.35;2.00;;;3.60;99.90;;;;;;6217094;23;20045;-65
2022/01/26 04:07:54;;;;;;;5.22;1.92;;;3.50;99.90;;;;;;6217068;23;20055;-65
2022/01/26 04:10:48;;;;;;;7.10;1.92;;;3.50;99.90;;;;;;6217134;23;20418;-65
2022/01/26 04:13:11;;;;;;;6.45;1.77;;;3.50;99.90;;;;;;6214661;23;20009;-65
2022/01/26 04:15:38;;;;;;;5.13;1.90;;;3.40;99.90;;;;;;6217031;23;20059;-64
2022/01/26 04:18:09;;;;;;;1.73;1.48;;;3.40;99.90;;;;;;6216953;23;20307;-65
2022/01/26 04:20:41;;;;;;;4.47;1.77;;;3.40;99.90;;;;;;6216836;23;20342;-65
2022/01/26 04:23:14;;;;;;;4.90;1.83;;;3.40;99.90;;;;;;6190356;23;20142;-65
2022/01/26 04:25:43;;;;;;;5.15;1.48;;;3.30;99.90;;;;;;6216766;23;20020;-65
2022/01/26 04:28:16;;;;;;;4.13;1.55;;;3.30;99.90;;;;;;6190817;23;20028;-65
2022/01/26 04:30:43;;;;;;;7.57;2.47;;;3.30;99.90;;;;;;6217195;23;20036;-65
2022/01/26 04:33:10;;;;;;;4.15;1.60;;;3.30;99.90;;;;;;6216861;23;20414;-65
2022/01/26 04:35:42;;;;;;;2.88;1.70;;;3.20;99.90;;;;;;6216705;23;20372;-65
2022/01/26 04:38:25;;;;;;;7.78;2.15;;;3.10;99.90;;;;;;6216572;23;20016;-65
2022/01/26 04:41:25;;;;;;;7.40;2.13;;;3.10;99.90;;;;;;6217699;23;20016;-64
2022/01/26 04:43:42;;;;;;;4.93;1.50;;;3.00;99.90;;;;;;6214486;23;20012;-64
2022/01/26 04:46:09;;;;;;;6.82;2.08;;;3.00;99.90;;;;;;6216636;23;20075;-65
2022/01/26 04:48:36;;;;;;;4.13;2.08;;;3.00;99.90;;;;;;6216532;23;20032;-65
2022/01/26 04:51:02;;;;;;;7.65;2.10;;;3.00;99.90;;;;;;6216712;23;20019;-65
2022/01/26 04:53:29;;;;;;;4.22;1.90;;;3.00;99.90;;;;;;6216904;23;20055;-64
2022/01/26 04:55:56;;;;;;;8.13;2.13;;;2.90;99.90;;;;;;6190539;23;20370;-65
2022/01/26 04:58:26;;;;;;;5.50;2.42;;;2.90;99.90;;;;;;6216915;23;20376;-65
2022/01/26 05:00:52;;;;;;;4.80;1.92;;;2.90;99.90;;;;;;6217006;23;20020;-65
2022/01/26 05:03:19;;;;;;;6.13;2.03;;;2.90;99.90;;;;;;6217153;23;20300;-66
2022/01/26 05:05:45;;;;;;;7.32;2.50;;;2.90;99.90;;;;;;6216203;23;20032;-66
2022/01/26 05:08:12;;;;;;;7.38;2.53;;;2.90;99.90;;;;;;6216876;23;20008;-65
2022/01/26 05:10:42;;;;;;;4.15;1.90;;;2.80;99.90;;;;;;6216909;23;20035;-64
2022/01/26 05:13:15;;;;;;;5.63;2.22;;;2.80;99.90;;;;;;6189815;23;20381;-65
2022/01/26 05:15:42;;;;;;;11.48;1.90;;;2.90;99.90;;;;;;6216849;23;20012;-65
2022/01/26 05:18:11;;;;;;;6.25;2.28;;;2.80;99.90;;;;;;6216360;23;20005;-65
2022/01/26 05:20:38;;;;;;;9.32;2.65;;;2.90;99.90;;;;;;6216737;23;20001;-65
2022/01/26 05:23:05;;;;;;;9.40;3.15;;;2.80;99.90;;;;;;6216181;23;20013;-65
2022/01/26 05:25:31;;;;;;;9.23;2.55;;;2.80;99.90;;;;;;6216102;23;20012;-65
2022/01/26 05:27:58;;;;;;;7.32;2.25;;;2.80;99.90;;;;;;6216290;23;20008;-65
2022/01/26 05:30:27;;;;;;;4.78;2.38;;;2.80;99.90;;;;;;6216242;23;20104;-66
2022/01/26 05:32:54;;;;;;;5.18;2.47;;;2.90;99.90;;;;;;6216099;23;20008;-66
2022/01/26 05:35:23;;;;;;;14.30;3.00;;;2.80;99.90;;;;;;6216182;23;20032;-65
2022/01/26 05:37:51;;;;;;;4.97;2.13;;;2.90;99.90;;;;;;6189518;23;20500;-66
2022/01/26 05:40:17;;;;;;;4.78;2.42;;;2.80;99.90;;;;;;6216086;23;20051;-64
2022/01/26 05:42:44;;;;;;;6.35;2.72;;;2.80;99.90;;;;;;6216211;23;20001;-65
2022/01/26 05:45:27;;;;;;;6.38;2.45;;;2.80;99.90;;;;;;6216178;23;20024;-65
2022/01/26 05:47:54;;;;;;;3.50;2.33;;;2.80;99.90;;;;;;6216109;23;20303;-65
2022/01/26 05:50:22;;;;;;;13.50;2.30;;;2.80;99.90;;;;;;6216104;23;20338;-65
2022/01/26 05:52:50;;;;;;;5.00;2.10;;;2.80;99.90;;;;;;6189133;23;20005;-65
2022/01/26 05:55:17;;;;;;;7.95;2.80;;;2.60;99.90;;;;;;6215949;23;20007;-65
2022/01/26 05:57:43;;;;;;;5.47;2.63;;;2.60;99.90;;;;;;6215728;23;20032;-65
2022/01/26 06:00:12;;;;;;;7.60;2.80;;;2.60;99.90;;;;;;6215804;23;20005;-65
2022/01/26 06:02:41;;;;;;;7.47;3.10;;;2.60;99.90;;;;;;6216049;23;20017;-65
2022/01/26 06:05:08;;;;;;;9.82;2.35;;;2.60;99.90;;;;;;6216181;23;20016;-65
2022/01/26 06:07:39;;;;;;;8.73;3.20;;;2.60;99.90;;;;;;6216238;23;20039;-65
2022/01/26 06:10:09;;;;;;;6.90;3.40;;;2.60;99.90;;;;;;6215827;23;20040;-65
2022/01/26 06:12:35;;;;;;;7.35;3.13;;;2.70;99.90;;;;;;6216109;23;20008;-65
2022/01/26 06:15:04;;;;;;;14.93;3.85;;;2.70;99.90;;;;;;6215976;23;20043;-65
2022/01/26 06:17:34;;;;;;;9.50;3.35;;;2.70;99.90;;;;;;6215969;23;20084;-65
2022/01/26 06:20:00;;;;;;;9.15;3.13;;;2.70;99.90;;;;;;6189821;23;20094;-65
2022/01/26 06:22:29;;;;;;;7.20;3.00;;;2.70;99.90;;;;;;6215890;23;20027;-65
2022/01/26 06:25:07;;;;;;;8.82;3.30;;;2.70;99.90;;;;;;6189235;23;20320;-65
2022/01/26 06:27:36;;;;;;;6.82;3.38;;;2.70;99.90;;;;;;6215766;23;20032;-65
2022/01/26 06:30:05;;;;;;;8.95;2.85;;;2.70;99.90;;;;;;6215723;23;20434;-65
2022/01/26 06:32:32;;;;;;;9.00;3.67;;;2.80;99.90;;;;;;6216338;23;20431;-65
2022/01/26 06:35:01;;;;;;;4.85;2.50;;;2.80;99.90;;;;;;6215873;23;20007;-65
2022/01/26 06:37:27;;;;;;;13.00;3.50;;;2.80;99.90;;;;;;6215504;23;20016;-65
2022/01/26 06:39:54;;;;;;;11.23;3.22;;;2.80;99.90;;;;;;6215733;23;20035;-65
2022/01/26 06:42:25;;;;;;;6.63;3.58;;;2.80;99.90;;;;;;6215880;23;20005;-65
2022/01/26 06:47:48;;;;;;;8.52;3.35;;;3.00;99.90;;;;;;6189299;23;20024;-64
2022/01/26 06:50:18;;;;;;;10.98;2.97;;;3.00;99.90;;;;;;6189268;23;20115;-65
2022/01/26 06:52:46;;;;;;;9.73;2.90;;;3.00;99.90;;;;;;6189120;23;20072;-65
2022/01/26 06:55:14;;;;;;;8.10;3.42;;;3.10;99.90;;;;;;6215564;23;20017;-65
2022/01/26 06:57:41;;;;;;;8.45;3.03;;;3.10;99.90;;;;;;6215775;23;20015;-65
2022/01/26 07:00:10;;;;;;;7.05;3.15;;;3.20;99.90;;;;;;6215688;23;20062;-65
2022/01/26 07:02:37;;;;;;;8.15;2.72;;;3.30;99.90;;;;;;6215724;23;20419;-65
2022/01/26 07:05:05;;;;;;;12.82;3.15;;;3.40;99.90;;;;;;6215608;23;20021;-65
2022/01/26 07:07:32;;;;;;;10.68;3.97;;;3.50;99.90;;;;;;6215739;23;20003;-65
2022/01/26 07:09:59;;;;;;;6.93;2.75;;;3.50;99.90;;;;;;6189861;23;20009;-65
2022/01/26 07:12:26;;;;;;;4.85;3.13;;;3.50;99.90;;;;;;6217573;23;20426;-65
2022/01/26 07:23:07;;;;;;;7.07;2.33;;;3.80;99.90;;;;;;6217871;23;20051;-65
2022/01/26 07:25:37;;;;;;;8.60;2.58;;;3.90;99.90;;;;;;6217212;23;20013;-65
2022/01/26 07:28:05;;;;;;;9.18;3.45;;;4.00;99.90;;;;;;6190981;23;20434;-65
2022/01/26 07:30:36;;;;;;;4.07;2.03;;;4.10;99.90;;;;;;6217724;23;20005;-65
2022/01/26 07:33:05;;;;;;;5.35;2.58;;;4.10;99.90;;;;;;6217728;23;20004;-65
2022/01/26 07:35:33;;;;;;;5.45;2.70;;;4.20;99.90;;;;;;6217708;23;20012;-65
2022/01/26 07:38:02;;;;;;;9.95;3.20;;;4.20;99.90;;;;;;6217278;23;20346;-65
2022/01/26 07:40:30;;;;;;;7.03;2.85;;;4.30;99.90;;;;;;6217267;23;20008;-65
2022/01/26 07:42:57;;;;;;;10.27;3.15;;;4.40;99.90;;;;;;6217351;23;20009;-65
2022/01/26 07:45:24;;;;;;;8.75;3.08;;;4.50;99.90;;;;;;6190562;23;20016;-65
2022/01/26 07:47:54;;;;;;;12.90;4.20;;;4.60;99.90;;;;;;6217168;23;20087;-65
2022/01/26 07:50:22;;;;;;;14.75;4.30;;;4.70;99.90;;;;;;6217179;23;20465;-65
2022/01/26 07:52:49;;;;;;;9.65;3.92;;;4.70;99.90;;;;;;6217197;23;20107;-65
2022/01/26 07:55:19;;;;;;;11.60;3.55;;;4.80;99.90;;;;;;6217916;23;20005;-65
2022/01/26 07:57:51;;;;;;;12.63;4.45;;;4.90;99.90;;;;;;6217048;23;20008;-65
2022/01/26 08:00:19;;;;;;;11.65;4.65;;;5.00;99.90;;;;;;6217113;23;20040;-65
2022/01/26 08:02:47;;;;;;;14.60;3.92;;;5.10;99.90;;;;;;6217191;23;19997;-65
2022/01/26 08:05:18;;;;;;;9.85;3.65;;;5.10;99.90;;;;;;6217008;23;20377;-65
2022/01/26 08:07:44;;;;;;;4.03;2.50;;;5.30;99.90;;;;;;6214747;23;20005;-65
2022/01/26 08:10:14;;;;;;;9.10;2.33;;;5.40;99.90;;;;;;6216773;23;20012;-65
2022/01/26 08:12:41;;;;;;;6.53;2.40;;;5.70;99.90;;;;;;6216431;23;20036;-65
2022/01/26 08:15:14;;;;;;;4.20;1.77;;;6.00;99.90;;;;;;6190423;23;20009;-65
2022/01/26 08:17:40;;;;;;;2.83;1.60;;;6.20;99.90;;;;;;6216503;23;20430;-65
2022/01/26 08:20:09;;;;;;;4.60;1.45;;;6.30;99.90;;;;;;6216562;23;20031;-65
2022/01/26 08:22:37;;;;;;;4.93;1.85;;;6.50;99.90;;;;;;6216006;23;20004;-65
2022/01/26 08:25:04;;;;;;;6.22;1.42;;;6.50;99.90;;;;;;6216626;23;20016;-65
2022/01/26 08:27:38;;;;;;;3.00;1.70;;;6.60;99.90;;;;;;6216535;23;20008;-65
2022/01/26 08:30:09;;;;;;;3.88;1.73;;;6.80;99.90;;;;;;6216604;23;20013;-65
2022/01/26 08:32:36;;;;;;;5.72;2.10;;;6.80;99.90;;;;;;6216506;23;20009;-65
2022/01/26 08:35:02;;;;;;;6.30;2.22;;;6.90;99.90;;;;;;6216382;23;20012;-65
2022/01/26 08:37:29;;;;;;;5.00;1.80;;;7.00;99.90;;;;;;6215936;23;20435;-65
2022/01/26 08:39:56;;;;;;;5.18;1.50;;;7.10;99.90;;;;;;6216531;23;20312;-65
2022/01/26 08:42:22;;;;;;;5.45;1.88;;;7.30;99.90;;;;;;6216432;23;20051;-66
2022/01/26 08:44:48;;;;;;;2.38;1.23;;;7.40;99.90;;;;;;6216155;23;20074;-65
2022/01/26 08:47:15;;;;;;;3.63;1.33;;;7.60;99.90;;;;;;6216431;23;20084;-65
2022/01/26 08:49:41;;;;;;;6.68;1.85;;;7.60;99.90;;;;;;6216159;23;20541;-65
2022/01/26 08:52:08;;;;;;;1.48;0.98;;;7.70;99.90;;;;;;6216449;23;20001;-66
2022/01/26 08:54:35;;;;;;;5.68;1.33;;;7.80;99.90;;;;;;6216347;23;20023;-65
2022/01/26 08:57:02;;;;;;;4.32;1.17;;;7.90;99.90;;;;;;6216271;23;20004;-65
2022/01/26 08:59:28;;;;;;;2.40;1.23;;;8.00;99.90;;;;;;6216165;23;20013;-65
2022/01/26 09:01:55;;;;;;;4.32;0.95;;;8.00;99.90;;;;;;6216180;23;20035;-65
2022/01/26 09:04:21;;;;;;;3.15;1.15;;;8.10;99.90;;;;;;6216074;23;20038;-65
2022/01/26 09:07:00;;;;;;;4.75;1.05;;;8.20;99.90;;;;;;6215728;23;20083;-65
2022/01/26 09:09:31;;;;;;;2.75;0.90;;;8.20;99.90;;;;;;6189595;23;20480;-65
2022/01/26 09:12:01;;;;;;;1.50;0.80;;;8.30;99.90;;;;;;6216148;23;20013;-65
2022/01/26 09:14:29;;;;;;;1.80;1.17;;;8.40;99.90;;;;;;6216353;23;20013;-65
2022/01/26 09:16:56;;;;;;;1.00;0.93;;;8.40;99.90;;;;;;6189520;23;20445;-65
2022/01/26 09:19:27;;;;;;;5.75;0.82;;;8.50;99.90;;;;;;6215902;23;20008;-65
2022/01/26 09:21:56;;;;;;;3.33;1.23;;;8.60;99.90;;;;;;6216436;23;20418;-65
2022/01/26 09:24:23;;;;;;;1.77;0.93;;;8.60;99.90;;;;;;6216005;23;20008;-65
2022/01/26 09:26:50;;;;;;;3.10;0.90;;;8.60;99.90;;;;;;6215951;23;20009;-65
2022/01/26 09:29:16;;;;;;;1.35;0.82;;;8.70;99.90;;;;;;6215908;23;20000;-65
2022/01/26 09:31:47;;;;;;;3.83;1.20;;;8.80;99.90;;;;;;6215898;23;20019;-65
2022/01/26 09:34:22;;;;;;;1.20;0.68;;;8.80;99.90;;;;;;6215649;23;20005;-65
2022/01/26 09:36:49;;;;;;;1.60;0.90;;;9.00;99.90;;;;;;6215471;23;20047;-66
2022/01/26 09:39:18;;;;;;;3.10;1.00;;;9.20;99.90;;;;;;6215949;23;20488;-65
2022/01/26 09:41:46;;;;;;;1.35;0.65;;;9.20;99.90;;;;;;6215844;23;20008;-65
2022/01/26 09:44:13;;;;;;;0.90;0.50;;;9.20;99.90;;;;;;6215728;23;20319;-65
2022/01/26 09:46:40;;;;;;;1.60;1.05;;;9.20;99.90;;;;;;6189107;23;20034;-66
2022/01/26 09:49:07;;;;;;;2.17;0.85;;;9.40;99.90;;;;;;6215682;23;20004;-65
2022/01/26 09:51:40;;;;;;;0.98;0.70;;;9.60;99.90;;;;;;6215730;23;20011;-65
2022/01/26 09:54:11;;;;;;;1.33;0.90;;;9.90;99.90;;;;;;6189135;23;20503;-65
2022/01/26 09:56:38;;;;;;;3.58;0.70;;;9.90;99.90;;;;;;6215644;23;20010;-65
2022/01/26 09:59:08;;;;;;;2.92;0.50;;;9.80;99.90;;;;;;6215310;23;20012;-65
2022/01/26 10:01:46;;;;;;;5.10;0.90;;;9.80;99.90;;;;;;6215587;23;20386;-65
2022/01/26 10:04:36;;;;;;;1.55;1.00;;;9.80;99.90;;;;;;6215387;23;20100;-65
2022/01/26 10:07:15;;;;;;;4.00;1.50;;;9.90;99.90;;;;;;6189152;23;20020;-65
2022/01/26 10:09:58;;;;;;;2.58;1.20;;;10.00;99.90;;;;;;6215589;23;20015;-66
2022/01/26 10:15:31;;;;;;;2.85;1.48;;;10.00;99.90;;;;;;6189267;23;20058;-65
2022/01/26 10:18:16;;;;;;;4.80;1.48;;;10.00;99.90;;;;;;6215570;23;20085;-65
2022/01/26 10:20:53;;;;;;;8.88;1.42;;;9.80;99.90;;;;;;6215643;23;20008;-65
2022/01/26 10:23:22;;;;;;;8.23;2.33;;;9.90;99.90;;;;;;6215672;23;20469;-66
2022/01/26 10:26:07;;;;;;;4.22;1.02;;;9.90;99.90;;;;;;6215377;23;20067;-65
2022/01/26 10:28:50;;;;;;;;;;;9.90;99.90;;;;;;6216218;23;20092;-65
2022/01/26 10:31:22;;;;;;;8.10;2.13;;;9.90;99.90;;;;;;6215978;23;19994;-66
2022/01/26 10:34:14;;;;;;;4.28;1.33;;;9.80;99.90;;;;;;6215543;23;20035;-65
2022/01/26 10:36:43;;;;;;;1.58;1.10;;;9.90;99.90;;;;;;6215255;23;20079;-65
2022/01/26 10:39:25;;;;;;;2.25;0.93;;;10.00;99.90;;;;;;6215490;23;20012;-65
2022/01/26 10:41:55;;;;;;;4.32;1.27;;;10.00;99.90;;;;;;6215644;23;20557;-65
2022/01/26 10:44:40;;;;;;;3.45;1.50;;;10.10;99.90;;;;;;6188944;23;20016;-65
2022/01/26 10:47:07;;;;;;;;;;;10.10;99.90;;;;;;6216200;23;20775;-65
2022/01/26 10:54:54;;;;;;;3.92;2.33;;;10.50;99.90;;;;;;6216599;23;20322;-66
2022/01/26 10:57:21;;;;;;;5.18;2.13;;;10.60;99.90;;;;;;6215715;23;20013;-65
2022/01/26 10:59:49;;;;;;;4.13;2.38;;;10.50;99.90;;;;;;6217440;23;20008;-65
2022/01/26 11:02:23;;;;;;;4.57;2.28;;;10.60;99.90;;;;;;6217554;23;20083;-66
2022/01/26 11:04:50;;;;;;;5.85;2.30;;;10.60;99.90;;;;;;6191115;23;20040;-65
2022/01/26 11:07:17;;;;;;;7.38;2.38;;;10.60;99.90;;;;;;6217932;23;20322;-66
2022/01/26 11:09:48;;;;;;;3.97;1.38;;;10.50;99.90;;;;;;6217651;23;20005;-66
2022/01/26 11:12:27;;;;;;;2.65;1.48;;;10.30;99.90;;;;;;6217552;23;20075;-66
2022/01/26 11:15:05;;;;;;;8.25;1.80;;;10.20;99.90;;;;;;6217467;23;20094;-65
2022/01/26 11:17:36;;;;;;;7.25;1.98;;;10.10;99.90;;;;;;6190952;23;20011;-65
2022/01/26 11:20:32;;;;;;;3.22;2.00;;;9.90;99.90;;;;;;6192209;23;20430;-65
2022/01/26 11:23:04;;;;;;;7.07;2.55;;;9.80;99.90;;;;;;6217472;23;20009;-66
2022/01/26 11:25:41;;;;;;;7.07;3.25;;;9.80;99.90;;;;;;6217723;23;20377;-65
2022/01/26 11:28:27;;;;;;;4.72;2.20;;;9.80;99.90;;;;;;6217457;23;20054;-65
2022/01/26 11:30:58;;;;;;;5.47;2.55;;;9.80;99.90;;;;;;6217323;23;20015;-66
2022/01/26 11:33:29;;;;;;;8.00;2.53;;;9.90;99.90;;;;;;6217729;23;20083;-65
2022/01/26 11:35:58;;;;;;;5.32;2.13;;;10.00;99.90;;;;;;6217049;23;20461;-66
2022/01/26 11:46:55;;;;;;;7.07;2.67;;;10.10;99.90;;;;;;6217556;23;20012;-66
2022/01/26 11:49:44;;;;;;;8.10;2.53;;;10.20;99.90;;;;;;6217207;23;20019;-66
2022/01/26 11:52:27;;;;;;;23.05;7.60;;;10.20;99.90;;;;;;6190781;23;20009;-66
2022/01/26 11:54:57;;;;;;;29.02;10.57;;;10.20;99.90;;;;;;6190549;23;20395;-66
2022/01/26 11:57:44;;;;;;;27.10;8.80;;;10.30;99.90;;;;;;6216879;23;20315;-65
2022/01/26 12:00:18;;;;;;;8.52;3.88;;;10.30;99.90;;;;;;6217105;23;20008;-66
2022/01/26 12:05:15;;;;;;;7.28;3.00;;;10.60;99.90;;;;;;6216252;23;20206;-65
2022/01/26 12:07:50;;;;;;;3.90;2.45;;;10.60;99.90;;;;;;6216930;23;20076;-65
2022/01/26 18:06:39;;;;;;;55.67;21.73;;;7.30;99.90;;;;;;6216013;23;20019;-71
2022/01/26 18:16:31;;;;;;;58.65;25.13;;;7.20;99.90;;;;;;6193555;23;20001;-70
2022/01/26 18:32:54;;;;;;;57.53;26.30;;;7.00;99.90;;;;;;6214096;23;20338;-72
2022/01/26 18:46:21;;;;;;;56.72;26.48;;;6.90;99.90;;;;;;6215832;23;20426;-72
2022/01/26 18:51:42;;;;;;;57.50;26.83;;;6.70;99.90;;;;;;6215633;23;20032;-72
2022/01/26 18:54:10;;;;;;;58.47;26.38;;;6.60;99.90;;;;;;6164328;23;20009;-71
2022/01/26 18:56:37;;;;;;;62.88;26.25;;;6.60;99.90;;;;;;6215819;23;20009;-71
2022/01/26 18:59:04;;;;;;;57.45;25.08;;;6.60;99.90;;;;;;6215858;23;20047;-72
2022/01/26 19:01:31;;;;;;;64.55;27.15;;;6.60;99.90;;;;;;6215643;23;20009;-72
2022/01/26 19:03:57;;;;;;;61.13;25.92;;;6.50;99.90;;;;;;6215934;23;20005;-71
2022/01/26 19:06:24;;;;;;;61.22;25.35;;;6.50;99.90;;;;;;6216633;23;20070;-72
2022/01/26 19:08:50;;;;;;;63.70;26.15;;;6.50;99.90;;;;;;6217844;23;19996;-71
2022/01/26 19:11:19;;;;;;;67.45;26.17;;;6.50;99.90;;;;;;6190936;23;20062;-70
2022/01/26 19:13:47;;;;;;;49.45;23.45;;;6.50;99.90;;;;;;6217580;23;20000;-71
2022/01/26 19:16:37;;;;;;;59.17;24.25;;;6.40;99.90;;;;;;6217587;23;20000;-71
2022/01/26 19:26:41;;;;;;;48.30;23.42;;;6.40;99.90;;;;;;6217739;23;20013;-73
2022/01/26 19:29:27;;;;;;;52.67;22.75;;;6.40;99.90;;;;;;6222968;23;20076;-87
2022/01/26 19:50:51;;;;;;;53.97;20.23;;;6.40;99.90;;;;;;6216961;23;20015;-66
2022/01/26 19:53:18;;;;;;;42.42;17.73;;;6.40;99.90;;;;;;6217405;23;20016;-66
2022/01/26 19:55:45;;;;;;;44.05;17.83;;;6.40;99.90;;;;;;6217211;23;20418;-66
2022/01/26 19:58:12;;;;;;;46.60;18.45;;;6.40;99.90;;;;;;6217559;23;20385;-66
2022/01/26 20:00:46;;;;;;;47.67;18.15;;;6.40;99.90;;;;;;6217183;23;20012;-65
2022/01/26 20:03:26;;;;;;;45.72;16.00;;;6.40;99.90;;;;;;6215422;23;20434;-65
2022/01/26 20:06:02;;;;;;;43.22;18.13;;;6.20;99.90;;;;;;6217123;23;20012;-65
2022/01/26 20:08:55;;;;;;;37.85;18.35;;;6.30;99.90;;;;;;6217257;23;20004;-65
2022/01/26 20:11:45;;;;;;;38.80;16.73;;;6.30;99.90;;;;;;6216100;23;20430;-65
2022/01/26 20:14:22;;;;;;;36.65;15.57;;;6.30;99.90;;;;;;6217119;23;20012;-65
2022/01/26 20:16:52;;;;;;;32.75;15.45;;;6.30;99.90;;;;;;6216789;23;20005;-65
2022/01/26 20:19:18;;;;;;;36.47;16.42;;;6.40;99.90;;;;;;6216592;23;20431;-66
2022/01/26 20:21:46;;;;;;;40.10;18.35;;;6.40;99.90;;;;;;6216842;23;20084;-66
2022/01/26 20:24:17;;;;;;;48.42;18.67;;;6.40;99.90;;;;;;6216666;23;20074;-66
2022/01/26 20:26:44;;;;;;;40.28;18.58;;;6.30;99.90;;;;;;6190310;23;20040;-66
2022/01/26 20:29:11;;;;;;;48.38;18.48;;;6.40;99.90;;;;;;6216764;23;20007;-66
2022/01/26 20:31:42;;;;;;;44.70;19.10;;;6.30;99.90;;;;;;6190422;23;20396;-65
2022/01/26 20:34:15;;;;;;;43.10;18.23;;;6.30;99.90;;;;;;6216913;23;20032;-65
2022/01/26 20:36:51;;;;;;;42.00;19.77;;;6.30;99.90;;;;;;6216665;23;20091;-65
2022/01/26 20:39:26;;;;;;;48.22;20.23;;;6.20;99.90;;;;;;6216593;23;20005;-65
2022/01/26 20:41:55;;;;;;;43.90;20.52;;;6.20;99.90;;;;;;6216514;23;20327;-65
2022/01/26 20:44:29;;;;;;;44.28;20.77;;;6.20;99.90;;;;;;6216729;23;20405;-65
2022/01/26 20:46:59;;;;;;;;;;;6.20;99.90;;;;;;6215601;23;20390;-65
2022/01/26 20:49:34;;;;;;;69.95;25.23;;;6.10;99.90;;;;;;6216813;23;19987;-65
2022/01/26 20:52:05;;;;;;;63.92;24.15;;;6.10;99.90;;;;;;6189575;23;20056;-65
2022/01/26 20:54:36;;;;;;;56.53;24.50;;;6.10;99.90;;;;;;6216949;23;20013;-65
2022/01/26 20:57:06;;;;;;;53.63;23.20;;;6.10;99.90;;;;;;6216363;23;20005;-66
2022/01/26 20:59:33;;;;;;;39.20;19.23;;;6.20;99.90;;;;;;6216499;23;20039;-65
2022/01/26 21:02:01;;;;;;;47.65;19.25;;;6.20;99.90;;;;;;6216435;23;20012;-66
2022/01/26 21:04:28;;;;;;;50.20;20.42;;;6.20;99.90;;;;;;6216405;23;20000;-65
2022/01/26 21:06:54;;;;;;;49.25;19.48;;;6.20;99.90;;;;;;6216631;23;20016;-65
2022/01/26 21:09:21;;;;;;;44.65;19.73;;;6.20;99.90;;;;;;6216313;23;20015;-65
2022/01/26 21:11:47;;;;;;;42.00;18.00;;;6.20;99.90;;;;;;6216364;23;20028;-65
2022/01/26 21:14:13;;;;;;;41.72;16.48;;;6.20;99.90;;;;;;6216341;23;20001;-65
2022/01/26 21:16:41;;;;;;;41.72;17.25;;;6.10;99.90;;;;;;6216370;23;20509;-65
2022/01/26 21:19:07;;;;;;;43.05;18.08;;;6.10;99.90;;;;;;6214833;23;20012;-66
2022/01/26 21:21:34;;;;;;;42.33;17.83;;;6.10;99.90;;;;;;6216332;23;20422;-65
2022/01/26 21:24:01;;;;;;;44.75;18.25;;;6.10;99.90;;;;;;6216207;23;20055;-65
2022/01/26 21:26:30;;;;;;;41.65;18.00;;;6.10;99.90;;;;;;6216239;23;20462;-66
2022/01/26 21:28:56;;;;;;;41.97;18.23;;;6.10;99.90;;;;;;6216108;23;20018;-66
2022/01/26 21:31:23;;;;;;;47.63;18.52;;;6.10;99.90;;;;;;6216201;23;20075;-66
2022/01/26 21:33:49;;;;;;;44.22;17.17;;;6.10;99.90;;;;;;6216193;23;20016;-65
2022/01/26 21:36:17;;;;;;;42.17;17.23;;;6.10;99.90;;;;;;6215979;23;20317;-66
2022/01/26 21:38:47;;;;;;;38.70;16.13;;;6.10;99.90;;;;;;6216235;23;20132;-66
2022/01/26 21:41:21;;;;;;;38.30;16.10;;;6.10;99.90;;;;;;6216258;23;20007;-65
2022/01/26 21:43:50;;;;;;;27.42;12.63;;;6.10;99.90;;;;;;6216292;23;20004;-66
2022/01/26 21:46:17;;;;;;;25.50;11.70;;;6.10;99.90;;;;;;6216032;23;20013;-65
2022/01/26 21:48:44;;;;;;;25.30;10.32;;;6.10;99.90;;;;;;6216115;23;20075;-65
2022/01/26 21:51:10;;;;;;;21.77;9.27;;;6.20;99.90;;;;;;6215851;23;20012;-66
2022/01/26 21:53:37;;;;;;;22.80;9.73;;;6.20;99.90;;;;;;6216089;23;20009;-65